sensor_id;sensor_type;location;lat;lon;timestamp;P1;durP1;ratioP1;P2;durP2;ratioP2
49962;SDS011;36180;57.678;11.910;2023-07-20T00:00:44;11.68;;;2.88;;
49962;SDS011;36180;57.678;11.910;2023-07-20T00:03:12;17.95;;;2.88;;
49962;SDS011;36180;57.678;11.910;2023-07-20T00:05:42;12.75;;;2.45;;
49962;SDS011;36180;57.678;11.910;2023-07-20T00:08:09;13.80;;;2.60;;
49962;SDS011;36180;57.678;11.910;2023-07-20T00:10:37;11.63;;;2.90;;
49962;SDS011;36180;57.678;11.910;2023-07-20T00:13:06;14.63;;;2.88;;
49962;SDS011;36180;57.678;11.910;2023-07-20T00:15:33;10.73;;;2.70;;
49962;SDS011;36180;57.678;11.910;2023-07-20T00:18:00;14.35;;;3.00;;
49962;SDS011;36180;57.678;11.910;2023-07-20T00:20:28;15.15;;;2.72;;
49962;SDS011;36180;57.678;11.910;2023-07-20T00:22:55;10.25;;;2.22;;
49962;SDS011;36180;57.678;11.910;2023-07-20T00:25:23;20.05;;;3.42;;
49962;SDS011;36180;57.678;11.910;2023-07-20T00:27:51;14.30;;;2.53;;
49962;SDS011;36180;57.678;11.910;2023-07-20T00:30:19;14.23;;;3.08;;
49962;SDS011;36180;57.678;11.910;2023-07-20T00:32:46;10.90;;;2.58;;
49962;SDS011;36180;57.678;11.910;2023-07-20T00:35:15;12.30;;;2.88;;
49962;SDS011;36180;57.678;11.910;2023-07-20T00:37:42;10.75;;;2.95;;
49962;SDS011;36180;57.678;11.910;2023-07-20T00:40:09;15.55;;;3.25;;
49962;SDS011;36180;57.678;11.910;2023-07-20T00:42:36;16.60;;;3.40;;
49962;SDS011;36180;57.678;11.910;2023-07-20T00:45:06;11.57;;;2.80;;
49962;SDS011;36180;57.678;11.910;2023-07-20T00:47:33;9.23;;;2.60;;
49962;SDS011;36180;57.678;11.910;2023-07-20T00:50:00;15.68;;;2.67;;
49962;SDS011;36180;57.678;11.910;2023-07-20T00:52:31;13.18;;;2.70;;
49962;SDS011;36180;57.678;11.910;2023-07-20T00:54:58;19.65;;;3.53;;
49962;SDS011;36180;57.678;11.910;2023-07-20T00:57:25;13.30;;;2.63;;
49962;SDS011;36180;57.678;11.910;2023-07-20T00:59:52;12.48;;;2.47;;
49962;SDS011;36180;57.678;11.910;2023-07-20T01:02:20;12.00;;;2.47;;
49962;SDS011;36180;57.678;11.910;2023-07-20T01:04:47;11.45;;;2.58;;
49962;SDS011;36180;57.678;11.910;2023-07-20T01:07:17;17.88;;;2.90;;
49962;SDS011;36180;57.678;11.910;2023-07-20T01:09:51;11.73;;;2.42;;
49962;SDS011;36180;57.678;11.910;2023-07-20T01:12:22;10.90;;;1.92;;
49962;SDS011;36180;57.678;11.910;2023-07-20T01:14:53;19.55;;;2.55;;
49962;SDS011;36180;57.678;11.910;2023-07-20T01:17:22;11.95;;;2.92;;
49962;SDS011;36180;57.678;11.910;2023-07-20T01:19:50;7.35;;;1.73;;
49962;SDS011;36180;57.678;11.910;2023-07-20T01:22:21;14.80;;;2.70;;
49962;SDS011;36180;57.678;11.910;2023-07-20T01:25:12;8.48;;;2.83;;
49962;SDS011;36180;57.678;11.910;2023-07-20T01:27:56;9.40;;;2.42;;
49962;SDS011;36180;57.678;11.910;2023-07-20T01:30:43;9.38;;;2.10;;
49962;SDS011;36180;57.678;11.910;2023-07-20T01:33:16;6.90;;;1.77;;
49962;SDS011;36180;57.678;11.910;2023-07-20T01:35:43;12.48;;;2.22;;
49962;SDS011;36180;57.678;11.910;2023-07-20T01:38:12;13.80;;;2.35;;
49962;SDS011;36180;57.678;11.910;2023-07-20T01:40:40;10.60;;;2.22;;
49962;SDS011;36180;57.678;11.910;2023-07-20T01:43:07;7.72;;;2.22;;
49962;SDS011;36180;57.678;11.910;2023-07-20T01:45:35;11.60;;;2.72;;
49962;SDS011;36180;57.678;11.910;2023-07-20T01:48:02;14.20;;;1.83;;
49962;SDS011;36180;57.678;11.910;2023-07-20T01:50:31;6.70;;;1.90;;
49962;SDS011;36180;57.678;11.910;2023-07-20T01:52:59;8.63;;;2.00;;
49962;SDS011;36180;57.678;11.910;2023-07-20T01:55:26;14.30;;;2.78;;
49962;SDS011;36180;57.678;11.910;2023-07-20T01:57:54;13.68;;;3.00;;
49962;SDS011;36180;57.678;11.910;2023-07-20T02:00:21;7.13;;;1.67;;
49962;SDS011;36180;57.678;11.910;2023-07-20T02:02:50;13.60;;;2.63;;
49962;SDS011;36180;57.678;11.910;2023-07-20T02:05:17;9.57;;;2.55;;
49962;SDS011;36180;57.678;11.910;2023-07-20T02:07:45;8.82;;;2.10;;
49962;SDS011;36180;57.678;11.910;2023-07-20T02:12:43;11.20;;;2.35;;
49962;SDS011;36180;57.678;11.910;2023-07-20T02:15:10;9.15;;;2.50;;
49962;SDS011;36180;57.678;11.910;2023-07-20T02:17:38;13.07;;;2.55;;
49962;SDS011;36180;57.678;11.910;2023-07-20T02:20:06;8.18;;;2.33;;
49962;SDS011;36180;57.678;11.910;2023-07-20T02:22:35;11.52;;;2.30;;
49962;SDS011;36180;57.678;11.910;2023-07-20T02:25:05;9.38;;;1.85;;
49962;SDS011;36180;57.678;11.910;2023-07-20T02:27:32;9.52;;;2.38;;
49962;SDS011;36180;57.678;11.910;2023-07-20T02:30:00;12.02;;;2.67;;
49962;SDS011;36180;57.678;11.910;2023-07-20T02:32:27;15.80;;;2.70;;
49962;SDS011;36180;57.678;11.910;2023-07-20T02:34:54;10.13;;;2.83;;
49962;SDS011;36180;57.678;11.910;2023-07-20T02:37:21;6.97;;;2.47;;
49962;SDS011;36180;57.678;11.910;2023-07-20T02:39:49;9.93;;;2.13;;
49962;SDS011;36180;57.678;11.910;2023-07-20T02:42:17;7.60;;;2.08;;
49962;SDS011;36180;57.678;11.910;2023-07-20T02:44:47;9.73;;;2.70;;
49962;SDS011;36180;57.678;11.910;2023-07-20T02:47:15;14.55;;;2.58;;
49962;SDS011;36180;57.678;11.910;2023-07-20T02:49:42;16.25;;;2.05;;
49962;SDS011;36180;57.678;11.910;2023-07-20T02:52:09;11.48;;;2.30;;
49962;SDS011;36180;57.678;11.910;2023-07-20T02:54:36;10.90;;;2.15;;
49962;SDS011;36180;57.678;11.910;2023-07-20T02:57:03;11.27;;;2.33;;
49962;SDS011;36180;57.678;11.910;2023-07-20T02:59:32;12.27;;;2.20;;
49962;SDS011;36180;57.678;11.910;2023-07-20T03:01:59;9.52;;;1.67;;
49962;SDS011;36180;57.678;11.910;2023-07-20T03:04:26;11.13;;;2.72;;
49962;SDS011;36180;57.678;11.910;2023-07-20T03:06:53;8.10;;;2.22;;
49962;SDS011;36180;57.678;11.910;2023-07-20T03:09:20;9.90;;;1.75;;
49962;SDS011;36180;57.678;11.910;2023-07-20T03:11:48;7.53;;;1.95;;
49962;SDS011;36180;57.678;11.910;2023-07-20T03:14:16;12.35;;;2.47;;
49962;SDS011;36180;57.678;11.910;2023-07-20T03:16:45;10.05;;;2.00;;
49962;SDS011;36180;57.678;11.910;2023-07-20T03:19:12;8.98;;;1.65;;
49962;SDS011;36180;57.678;11.910;2023-07-20T03:21:40;11.32;;;2.00;;
49962;SDS011;36180;57.678;11.910;2023-07-20T03:24:08;10.23;;;1.90;;
49962;SDS011;36180;57.678;11.910;2023-07-20T03:26:35;8.55;;;2.20;;
49962;SDS011;36180;57.678;11.910;2023-07-20T03:29:03;8.63;;;2.08;;
49962;SDS011;36180;57.678;11.910;2023-07-20T03:31:32;8.27;;;1.65;;
49962;SDS011;36180;57.678;11.910;2023-07-20T03:34:00;9.13;;;1.77;;
49962;SDS011;36180;57.678;11.910;2023-07-20T03:36:28;7.13;;;1.83;;
49962;SDS011;36180;57.678;11.910;2023-07-20T03:38:56;3.88;;;1.40;;
49962;SDS011;36180;57.678;11.910;2023-07-20T03:41:23;4.15;;;1.25;;
49962;SDS011;36180;57.678;11.910;2023-07-20T03:43:50;5.05;;;1.13;;
49962;SDS011;36180;57.678;11.910;2023-07-20T03:46:17;5.60;;;1.50;;
49962;SDS011;36180;57.678;11.910;2023-07-20T03:48:45;9.70;;;1.90;;
49962;SDS011;36180;57.678;11.910;2023-07-20T03:51:13;4.30;;;1.42;;
49962;SDS011;36180;57.678;11.910;2023-07-20T03:53:40;6.38;;;1.55;;
49962;SDS011;36180;57.678;11.910;2023-07-20T03:56:07;6.07;;;1.67;;
49962;SDS011;36180;57.678;11.910;2023-07-20T03:58:34;7.72;;;1.20;;
49962;SDS011;36180;57.678;11.910;2023-07-20T04:01:02;8.40;;;1.58;;
49962;SDS011;36180;57.678;11.910;2023-07-20T04:03:29;4.88;;;1.60;;
49962;SDS011;36180;57.678;11.910;2023-07-20T04:05:56;7.05;;;1.70;;
49962;SDS011;36180;57.678;11.910;2023-07-20T04:08:25;7.38;;;1.50;;
49962;SDS011;36180;57.678;11.910;2023-07-20T04:10:52;9.43;;;1.20;;
49962;SDS011;36180;57.678;11.910;2023-07-20T04:13:19;10.02;;;1.65;;
49962;SDS011;36180;57.678;11.910;2023-07-20T04:15:46;3.75;;;1.23;;
49962;SDS011;36180;57.678;11.910;2023-07-20T04:18:13;9.43;;;1.85;;
49962;SDS011;36180;57.678;11.910;2023-07-20T04:20:41;5.45;;;1.20;;
49962;SDS011;36180;57.678;11.910;2023-07-20T04:23:08;3.78;;;1.10;;
49962;SDS011;36180;57.678;11.910;2023-07-20T04:25:36;4.97;;;1.50;;
49962;SDS011;36180;57.678;11.910;2023-07-20T04:28:06;5.35;;;0.93;;
49962;SDS011;36180;57.678;11.910;2023-07-20T04:30:36;5.18;;;1.33;;
49962;SDS011;36180;57.678;11.910;2023-07-20T04:33:04;8.98;;;1.23;;
49962;SDS011;36180;57.678;11.910;2023-07-20T04:35:47;6.15;;;1.00;;
49962;SDS011;36180;57.678;11.910;2023-07-20T04:38:19;7.55;;;1.63;;
49962;SDS011;36180;57.678;11.910;2023-07-20T04:40:53;4.53;;;1.23;;
49962;SDS011;36180;57.678;11.910;2023-07-20T04:43:20;3.63;;;1.50;;
49962;SDS011;36180;57.678;11.910;2023-07-20T04:45:47;8.27;;;1.27;;
49962;SDS011;36180;57.678;11.910;2023-07-20T04:48:16;4.32;;;1.17;;
49962;SDS011;36180;57.678;11.910;2023-07-20T04:50:49;5.18;;;1.30;;
49962;SDS011;36180;57.678;11.910;2023-07-20T04:53:17;6.30;;;1.33;;
49962;SDS011;36180;57.678;11.910;2023-07-20T04:55:48;5.50;;;0.80;;
49962;SDS011;36180;57.678;11.910;2023-07-20T04:58:22;5.63;;;1.35;;
49962;SDS011;36180;57.678;11.910;2023-07-20T05:00:50;4.97;;;1.35;;
49962;SDS011;36180;57.678;11.910;2023-07-20T05:03:19;5.43;;;0.95;;
49962;SDS011;36180;57.678;11.910;2023-07-20T05:05:46;5.93;;;1.40;;
49962;SDS011;36180;57.678;11.910;2023-07-20T05:08:13;4.00;;;1.02;;
49962;SDS011;36180;57.678;11.910;2023-07-20T05:10:41;9.75;;;1.25;;
49962;SDS011;36180;57.678;11.910;2023-07-20T05:13:08;5.03;;;1.40;;
49962;SDS011;36180;57.678;11.910;2023-07-20T05:15:37;5.75;;;1.10;;
49962;SDS011;36180;57.678;11.910;2023-07-20T05:18:06;5.32;;;1.15;;
49962;SDS011;36180;57.678;11.910;2023-07-20T05:20:34;2.85;;;0.95;;
49962;SDS011;36180;57.678;11.910;2023-07-20T05:23:02;3.28;;;1.10;;
49962;SDS011;36180;57.678;11.910;2023-07-20T05:25:29;4.35;;;1.10;;
49962;SDS011;36180;57.678;11.910;2023-07-20T05:27:56;4.47;;;1.40;;
49962;SDS011;36180;57.678;11.910;2023-07-20T05:30:23;5.50;;;1.63;;
49962;SDS011;36180;57.678;11.910;2023-07-20T05:32:52;4.18;;;1.45;;
49962;SDS011;36180;57.678;11.910;2023-07-20T05:35:19;9.95;;;1.50;;
49962;SDS011;36180;57.678;11.910;2023-07-20T05:37:47;5.78;;;1.25;;
49962;SDS011;36180;57.678;11.910;2023-07-20T05:40:15;5.70;;;1.48;;
49962;SDS011;36180;57.678;11.910;2023-07-20T05:42:44;7.15;;;1.40;;
49962;SDS011;36180;57.678;11.910;2023-07-20T05:45:13;4.60;;;1.10;;
49962;SDS011;36180;57.678;11.910;2023-07-20T05:47:41;8.30;;;1.17;;
49962;SDS011;36180;57.678;11.910;2023-07-20T05:50:10;6.72;;;1.58;;
49962;SDS011;36180;57.678;11.910;2023-07-20T05:52:37;3.47;;;1.10;;
49962;SDS011;36180;57.678;11.910;2023-07-20T05:55:05;7.70;;;1.35;;
49962;SDS011;36180;57.678;11.910;2023-07-20T05:57:33;6.30;;;1.25;;
49962;SDS011;36180;57.678;11.910;2023-07-20T06:00:00;7.25;;;1.25;;
49962;SDS011;36180;57.678;11.910;2023-07-20T06:02:37;8.55;;;1.50;;
49962;SDS011;36180;57.678;11.910;2023-07-20T06:05:04;3.65;;;0.95;;
49962;SDS011;36180;57.678;11.910;2023-07-20T06:07:36;5.70;;;1.10;;
49962;SDS011;36180;57.678;11.910;2023-07-20T06:10:03;8.70;;;1.60;;
49962;SDS011;36180;57.678;11.910;2023-07-20T06:12:31;12.73;;;1.95;;
49962;SDS011;36180;57.678;11.910;2023-07-20T06:15:01;11.65;;;1.38;;
49962;SDS011;36180;57.678;11.910;2023-07-20T06:17:28;7.03;;;1.25;;
49962;SDS011;36180;57.678;11.910;2023-07-20T06:19:56;8.52;;;2.38;;
49962;SDS011;36180;57.678;11.910;2023-07-20T06:22:24;4.95;;;1.23;;
49962;SDS011;36180;57.678;11.910;2023-07-20T06:24:52;5.05;;;1.00;;
49962;SDS011;36180;57.678;11.910;2023-07-20T06:27:19;3.88;;;1.30;;
49962;SDS011;36180;57.678;11.910;2023-07-20T06:29:46;5.65;;;1.15;;
49962;SDS011;36180;57.678;11.910;2023-07-20T06:32:13;2.67;;;0.70;;
49962;SDS011;36180;57.678;11.910;2023-07-20T06:34:40;10.02;;;1.33;;
49962;SDS011;36180;57.678;11.910;2023-07-20T06:37:07;8.40;;;1.42;;
49962;SDS011;36180;57.678;11.910;2023-07-20T06:39:35;7.25;;;1.20;;
49962;SDS011;36180;57.678;11.910;2023-07-20T06:42:03;9.07;;;1.60;;
49962;SDS011;36180;57.678;11.910;2023-07-20T06:44:31;7.07;;;0.88;;
49962;SDS011;36180;57.678;11.910;2023-07-20T06:46:58;5.30;;;1.20;;
49962;SDS011;36180;57.678;11.910;2023-07-20T06:49:25;5.63;;;1.15;;
49962;SDS011;36180;57.678;11.910;2023-07-20T06:51:53;6.20;;;0.90;;
49962;SDS011;36180;57.678;11.910;2023-07-20T06:54:20;2.67;;;0.90;;
49962;SDS011;36180;57.678;11.910;2023-07-20T06:56:47;7.55;;;1.10;;
49962;SDS011;36180;57.678;11.910;2023-07-20T06:59:16;6.13;;;1.08;;
49962;SDS011;36180;57.678;11.910;2023-07-20T07:01:43;6.45;;;1.02;;
49962;SDS011;36180;57.678;11.910;2023-07-20T07:04:11;6.55;;;1.00;;
49962;SDS011;36180;57.678;11.910;2023-07-20T07:06:38;2.40;;;0.70;;
49962;SDS011;36180;57.678;11.910;2023-07-20T07:09:05;8.65;;;1.00;;
49962;SDS011;36180;57.678;11.910;2023-07-20T07:11:33;4.35;;;1.30;;
49962;SDS011;36180;57.678;11.910;2023-07-20T07:14:00;2.95;;;0.90;;
49962;SDS011;36180;57.678;11.910;2023-07-20T07:16:29;4.70;;;1.10;;
49962;SDS011;36180;57.678;11.910;2023-07-20T07:18:56;5.38;;;1.00;;
49962;SDS011;36180;57.678;11.910;2023-07-20T07:21:23;8.73;;;1.40;;
49962;SDS011;36180;57.678;11.910;2023-07-20T07:23:50;8.43;;;1.25;;
49962;SDS011;36180;57.678;11.910;2023-07-20T07:26:18;5.90;;;1.23;;
49962;SDS011;36180;57.678;11.910;2023-07-20T07:28:46;8.80;;;1.20;;
49962;SDS011;36180;57.678;11.910;2023-07-20T07:31:13;8.43;;;1.50;;
49962;SDS011;36180;57.678;11.910;2023-07-20T07:33:42;10.13;;;1.58;;
49962;SDS011;36180;57.678;11.910;2023-07-20T07:36:09;9.68;;;1.88;;
49962;SDS011;36180;57.678;11.910;2023-07-20T07:38:36;8.07;;;1.60;;
49962;SDS011;36180;57.678;11.910;2023-07-20T07:41:03;7.57;;;1.35;;
49962;SDS011;36180;57.678;11.910;2023-07-20T07:43:30;9.75;;;1.58;;
49962;SDS011;36180;57.678;11.910;2023-07-20T07:45:58;5.70;;;1.30;;
49962;SDS011;36180;57.678;11.910;2023-07-20T07:48:25;13.43;;;2.03;;
49962;SDS011;36180;57.678;11.910;2023-07-20T07:50:54;7.25;;;1.85;;
49962;SDS011;36180;57.678;11.910;2023-07-20T07:53:21;12.63;;;1.17;;
49962;SDS011;36180;57.678;11.910;2023-07-20T07:55:51;8.27;;;1.20;;
49962;SDS011;36180;57.678;11.910;2023-07-20T07:58:18;8.30;;;1.48;;
49962;SDS011;36180;57.678;11.910;2023-07-20T08:00:45;6.72;;;1.10;;
49962;SDS011;36180;57.678;11.910;2023-07-20T08:03:13;7.22;;;1.50;;
49962;SDS011;36180;57.678;11.910;2023-07-20T08:05:40;8.15;;;1.33;;
49962;SDS011;36180;57.678;11.910;2023-07-20T08:08:08;3.78;;;1.35;;
49962;SDS011;36180;57.678;11.910;2023-07-20T08:10:35;3.78;;;1.13;;
49962;SDS011;36180;57.678;11.910;2023-07-20T08:13:02;4.85;;;1.45;;
49962;SDS011;36180;57.678;11.910;2023-07-20T08:15:29;5.50;;;0.90;;
49962;SDS011;36180;57.678;11.910;2023-07-20T08:17:56;5.25;;;1.40;;
49962;SDS011;36180;57.678;11.910;2023-07-20T08:20:23;7.88;;;1.00;;
49962;SDS011;36180;57.678;11.910;2023-07-20T08:22:51;5.20;;;1.17;;
49962;SDS011;36180;57.678;11.910;2023-07-20T08:25:21;4.50;;;1.38;;
49962;SDS011;36180;57.678;11.910;2023-07-20T08:27:48;6.18;;;1.05;;
49962;SDS011;36180;57.678;11.910;2023-07-20T08:30:15;5.07;;;1.13;;
49962;SDS011;36180;57.678;11.910;2023-07-20T08:32:42;5.88;;;1.08;;
49962;SDS011;36180;57.678;11.910;2023-07-20T08:35:09;7.53;;;1.38;;
49962;SDS011;36180;57.678;11.910;2023-07-20T08:37:36;5.65;;;1.10;;
49962;SDS011;36180;57.678;11.910;2023-07-20T08:40:04;4.57;;;0.80;;
49962;SDS011;36180;57.678;11.910;2023-07-20T08:42:35;4.40;;;1.10;;
49962;SDS011;36180;57.678;11.910;2023-07-20T08:45:05;3.80;;;0.90;;
49962;SDS011;36180;57.678;11.910;2023-07-20T08:47:33;4.63;;;0.90;;
49962;SDS011;36180;57.678;11.910;2023-07-20T08:50:02;3.40;;;0.88;;
49962;SDS011;36180;57.678;11.910;2023-07-20T08:52:32;4.00;;;0.80;;
49962;SDS011;36180;57.678;11.910;2023-07-20T08:55:00;6.95;;;1.00;;
49962;SDS011;36180;57.678;11.910;2023-07-20T08:57:29;8.07;;;0.82;;
49962;SDS011;36180;57.678;11.910;2023-07-20T09:00:01;7.47;;;0.90;;
49962;SDS011;36180;57.678;11.910;2023-07-20T09:02:32;5.47;;;1.42;;
49962;SDS011;36180;57.678;11.910;2023-07-20T09:05:02;1.90;;;0.70;;
49962;SDS011;36180;57.678;11.910;2023-07-20T09:07:30;6.43;;;0.95;;
49962;SDS011;36180;57.678;11.910;2023-07-20T09:09:57;3.90;;;1.00;;
49962;SDS011;36180;57.678;11.910;2023-07-20T09:12:25;6.15;;;0.90;;
49962;SDS011;36180;57.678;11.910;2023-07-20T09:14:52;2.28;;;0.70;;
49962;SDS011;36180;57.678;11.910;2023-07-20T09:17:21;4.18;;;0.70;;
49962;SDS011;36180;57.678;11.910;2023-07-20T09:19:52;5.47;;;0.80;;
49962;SDS011;36180;57.678;11.910;2023-07-20T09:22:19;4.97;;;0.82;;
49962;SDS011;36180;57.678;11.910;2023-07-20T09:24:46;5.78;;;1.13;;
49962;SDS011;36180;57.678;11.910;2023-07-20T09:27:13;2.88;;;0.70;;
49962;SDS011;36180;57.678;11.910;2023-07-20T09:29:47;4.45;;;0.63;;
49962;SDS011;36180;57.678;11.910;2023-07-20T09:32:17;3.65;;;0.70;;
49962;SDS011;36180;57.678;11.910;2023-07-20T09:34:47;3.97;;;0.73;;
49962;SDS011;36180;57.678;11.910;2023-07-20T09:37:14;5.00;;;0.75;;
49962;SDS011;36180;57.678;11.910;2023-07-20T09:39:47;6.68;;;0.65;;
49962;SDS011;36180;57.678;11.910;2023-07-20T09:42:14;5.45;;;0.82;;
49962;SDS011;36180;57.678;11.910;2023-07-20T09:44:43;3.55;;;0.80;;
49962;SDS011;36180;57.678;11.910;2023-07-20T09:47:11;4.40;;;1.38;;
49962;SDS011;36180;57.678;11.910;2023-07-20T09:49:39;2.22;;;0.50;;
49962;SDS011;36180;57.678;11.910;2023-07-20T09:52:08;4.65;;;0.82;;
49962;SDS011;36180;57.678;11.910;2023-07-20T09:54:35;4.18;;;0.80;;
49962;SDS011;36180;57.678;11.910;2023-07-20T09:57:04;5.03;;;0.88;;
49962;SDS011;36180;57.678;11.910;2023-07-20T09:59:34;5.55;;;0.77;;
49962;SDS011;36180;57.678;11.910;2023-07-20T10:02:01;6.05;;;1.00;;
49962;SDS011;36180;57.678;11.910;2023-07-20T10:04:43;3.97;;;0.70;;
49962;SDS011;36180;57.678;11.910;2023-07-20T10:07:11;4.18;;;0.70;;
49962;SDS011;36180;57.678;11.910;2023-07-20T10:09:40;1.95;;;0.73;;
49962;SDS011;36180;57.678;11.910;2023-07-20T10:12:08;4.30;;;0.80;;
49962;SDS011;36180;57.678;11.910;2023-07-20T10:14:37;1.45;;;0.40;;
49962;SDS011;36180;57.678;11.910;2023-07-20T10:17:07;3.92;;;0.95;;
49962;SDS011;36180;57.678;11.910;2023-07-20T10:19:38;3.38;;;0.77;;
49962;SDS011;36180;57.678;11.910;2023-07-20T10:22:12;3.42;;;0.60;;
49962;SDS011;36180;57.678;11.910;2023-07-20T10:24:44;7.13;;;0.90;;
49962;SDS011;36180;57.678;11.910;2023-07-20T10:27:12;2.75;;;0.40;;
49962;SDS011;36180;57.678;11.910;2023-07-20T10:29:40;2.28;;;0.43;;
49962;SDS011;36180;57.678;11.910;2023-07-20T10:32:08;3.95;;;0.77;;
49962;SDS011;36180;57.678;11.910;2023-07-20T10:34:35;2.83;;;0.68;;
49962;SDS011;36180;57.678;11.910;2023-07-20T10:37:03;2.63;;;0.55;;
49962;SDS011;36180;57.678;11.910;2023-07-20T10:39:32;4.60;;;0.77;;
49962;SDS011;36180;57.678;11.910;2023-07-20T10:41:59;3.53;;;0.60;;
49962;SDS011;36180;57.678;11.910;2023-07-20T10:44:28;2.85;;;0.70;;
49962;SDS011;36180;57.678;11.910;2023-07-20T10:46:58;5.50;;;1.30;;
49962;SDS011;36180;57.678;11.910;2023-07-20T10:49:27;4.80;;;0.88;;
49962;SDS011;36180;57.678;11.910;2023-07-20T10:51:57;8.52;;;1.20;;
49962;SDS011;36180;57.678;11.910;2023-07-20T10:54:36;2.97;;;0.80;;
49962;SDS011;36180;57.678;11.910;2023-07-20T11:00:09;5.03;;;0.70;;
49962;SDS011;36180;57.678;11.910;2023-07-20T11:02:47;4.00;;;0.70;;
49962;SDS011;36180;57.678;11.910;2023-07-20T11:05:34;5.82;;;0.82;;
49962;SDS011;36180;57.678;11.910;2023-07-20T11:08:05;3.50;;;0.68;;
49962;SDS011;36180;57.678;11.910;2023-07-20T11:10:37;2.58;;;0.57;;
49962;SDS011;36180;57.678;11.910;2023-07-20T11:13:17;3.75;;;1.00;;
49962;SDS011;36180;57.678;11.910;2023-07-20T11:15:46;3.22;;;0.60;;
49962;SDS011;36180;57.678;11.910;2023-07-20T11:18:14;6.53;;;1.17;;
49962;SDS011;36180;57.678;11.910;2023-07-20T11:20:41;2.60;;;0.65;;
49962;SDS011;36180;57.678;11.910;2023-07-20T11:23:09;4.10;;;0.82;;
49962;SDS011;36180;57.678;11.910;2023-07-20T11:25:38;3.17;;;0.70;;
49962;SDS011;36180;57.678;11.910;2023-07-20T11:28:06;3.35;;;0.60;;
49962;SDS011;36180;57.678;11.910;2023-07-20T11:30:34;2.20;;;0.75;;
49962;SDS011;36180;57.678;11.910;2023-07-20T11:33:01;1.33;;;0.80;;
49962;SDS011;36180;57.678;11.910;2023-07-20T11:35:28;5.97;;;0.63;;
49962;SDS011;36180;57.678;11.910;2023-07-20T11:37:55;5.75;;;1.27;;
49962;SDS011;36180;57.678;11.910;2023-07-20T11:40:22;8.32;;;1.20;;
49962;SDS011;36180;57.678;11.910;2023-07-20T11:42:51;3.65;;;0.88;;
49962;SDS011;36180;57.678;11.910;2023-07-20T11:45:19;4.97;;;0.73;;
49962;SDS011;36180;57.678;11.910;2023-07-20T11:47:46;7.45;;;1.20;;
49962;SDS011;36180;57.678;11.910;2023-07-20T11:50:14;1.27;;;0.57;;
49962;SDS011;36180;57.678;11.910;2023-07-20T11:52:42;6.55;;;1.20;;
49962;SDS011;36180;57.678;11.910;2023-07-20T11:55:09;3.28;;;0.98;;
49962;SDS011;36180;57.678;11.910;2023-07-20T11:57:37;6.00;;;1.02;;
49962;SDS011;36180;57.678;11.910;2023-07-20T12:00:06;3.15;;;0.80;;
49962;SDS011;36180;57.678;11.910;2023-07-20T12:05:04;2.75;;;0.80;;
49962;SDS011;36180;57.678;11.910;2023-07-20T12:07:34;4.00;;;1.30;;
49962;SDS011;36180;57.678;11.910;2023-07-20T12:10:04;4.82;;;1.10;;
49962;SDS011;36180;57.678;11.910;2023-07-20T12:12:32;5.63;;;1.10;;
49962;SDS011;36180;57.678;11.910;2023-07-20T12:15:14;6.93;;;1.27;;
49962;SDS011;36180;57.678;11.910;2023-07-20T12:17:42;6.60;;;1.00;;
49962;SDS011;36180;57.678;11.910;2023-07-20T12:20:10;6.55;;;1.10;;
49962;SDS011;36180;57.678;11.910;2023-07-20T12:22:41;6.75;;;1.52;;
49962;SDS011;36180;57.678;11.910;2023-07-20T12:25:10;4.85;;;0.98;;
49962;SDS011;36180;57.678;11.910;2023-07-20T12:27:37;6.18;;;1.33;;
49962;SDS011;36180;57.678;11.910;2023-07-20T12:30:06;8.20;;;1.27;;
49962;SDS011;36180;57.678;11.910;2023-07-20T12:32:35;6.32;;;1.30;;
49962;SDS011;36180;57.678;11.910;2023-07-20T12:35:02;10.52;;;1.63;;
49962;SDS011;36180;57.678;11.910;2023-07-20T12:37:30;8.15;;;1.27;;
49962;SDS011;36180;57.678;11.910;2023-07-20T12:39:57;7.13;;;1.55;;
49962;SDS011;36180;57.678;11.910;2023-07-20T12:42:24;6.53;;;1.27;;
49962;SDS011;36180;57.678;11.910;2023-07-20T12:44:51;12.45;;;1.55;;
49962;SDS011;36180;57.678;11.910;2023-07-20T12:47:18;4.70;;;0.90;;
49962;SDS011;36180;57.678;11.910;2023-07-20T12:49:47;9.50;;;1.83;;
49962;SDS011;36180;57.678;11.910;2023-07-20T12:52:14;7.47;;;1.45;;
49962;SDS011;36180;57.678;11.910;2023-07-20T12:54:41;7.80;;;1.30;;
49962;SDS011;36180;57.678;11.910;2023-07-20T12:57:08;10.73;;;1.40;;
49962;SDS011;36180;57.678;11.910;2023-07-20T12:59:35;6.93;;;1.55;;
49962;SDS011;36180;57.678;11.910;2023-07-20T13:02:02;6.70;;;1.35;;
49962;SDS011;36180;57.678;11.910;2023-07-20T13:04:29;3.83;;;1.20;;
49962;SDS011;36180;57.678;11.910;2023-07-20T13:06:58;6.65;;;1.52;;
49962;SDS011;36180;57.678;11.910;2023-07-20T13:09:25;5.80;;;1.17;;
49962;SDS011;36180;57.678;11.910;2023-07-20T13:11:52;7.57;;;1.35;;
49962;SDS011;36180;57.678;11.910;2023-07-20T13:14:19;6.15;;;1.42;;
49962;SDS011;36180;57.678;11.910;2023-07-20T13:16:46;9.75;;;2.00;;
49962;SDS011;36180;57.678;11.910;2023-07-20T13:19:13;6.85;;;1.42;;
49962;SDS011;36180;57.678;11.910;2023-07-20T13:21:40;13.25;;;1.63;;
49962;SDS011;36180;57.678;11.910;2023-07-20T13:24:09;7.88;;;1.40;;
49962;SDS011;36180;57.678;11.910;2023-07-20T13:26:36;8.38;;;1.45;;
49962;SDS011;36180;57.678;11.910;2023-07-20T13:29:03;5.15;;;1.45;;
49962;SDS011;36180;57.678;11.910;2023-07-20T13:31:30;5.80;;;1.05;;
49962;SDS011;36180;57.678;11.910;2023-07-20T13:33:57;6.00;;;1.40;;
49962;SDS011;36180;57.678;11.910;2023-07-20T13:36:24;11.23;;;1.83;;
49962;SDS011;36180;57.678;11.910;2023-07-20T13:38:51;11.38;;;1.80;;
49962;SDS011;36180;57.678;11.910;2023-07-20T13:41:20;6.70;;;1.20;;
49962;SDS011;36180;57.678;11.910;2023-07-20T13:43:47;6.78;;;1.10;;
49962;SDS011;36180;57.678;11.910;2023-07-20T13:46:14;7.95;;;1.75;;
49962;SDS011;36180;57.678;11.910;2023-07-20T13:48:41;11.70;;;1.75;;
49962;SDS011;36180;57.678;11.910;2023-07-20T13:51:08;11.15;;;2.42;;
49962;SDS011;36180;57.678;11.910;2023-07-20T13:53:36;10.68;;;1.77;;
49962;SDS011;36180;57.678;11.910;2023-07-20T13:56:03;10.27;;;1.50;;
49962;SDS011;36180;57.678;11.910;2023-07-20T13:58:32;3.75;;;1.30;;
49962;SDS011;36180;57.678;11.910;2023-07-20T14:00:59;9.50;;;1.50;;
49962;SDS011;36180;57.678;11.910;2023-07-20T14:03:26;5.25;;;1.27;;
49962;SDS011;36180;57.678;11.910;2023-07-20T14:05:53;6.60;;;1.38;;
49962;SDS011;36180;57.678;11.910;2023-07-20T14:08:20;9.30;;;2.13;;
49962;SDS011;36180;57.678;11.910;2023-07-20T14:10:48;10.55;;;2.03;;
49962;SDS011;36180;57.678;11.910;2023-07-20T14:13:15;7.07;;;2.05;;
49962;SDS011;36180;57.678;11.910;2023-07-20T14:15:43;9.13;;;2.13;;
49962;SDS011;36180;57.678;11.910;2023-07-20T14:18:10;13.50;;;2.28;;
49962;SDS011;36180;57.678;11.910;2023-07-20T14:20:38;6.55;;;1.85;;
49962;SDS011;36180;57.678;11.910;2023-07-20T14:23:05;10.18;;;1.95;;
49962;SDS011;36180;57.678;11.910;2023-07-20T14:25:32;10.75;;;2.00;;
49962;SDS011;36180;57.678;11.910;2023-07-20T14:27:59;10.77;;;2.05;;
49962;SDS011;36180;57.678;11.910;2023-07-20T14:30:26;10.88;;;1.88;;
49962;SDS011;36180;57.678;11.910;2023-07-20T14:32:55;8.27;;;2.00;;
49962;SDS011;36180;57.678;11.910;2023-07-20T14:35:22;11.75;;;2.03;;
49962;SDS011;36180;57.678;11.910;2023-07-20T14:37:49;12.35;;;2.40;;
49962;SDS011;36180;57.678;11.910;2023-07-20T14:40:16;10.20;;;2.40;;
49962;SDS011;36180;57.678;11.910;2023-07-20T14:42:44;11.95;;;2.40;;
49962;SDS011;36180;57.678;11.910;2023-07-20T14:45:11;9.23;;;1.77;;